Blawenburg, New Jersey
Current Conditions -  °F | °C
As of 1:53 PM on Saturday 25 Oct 2014 (Local Time) from KTTN Reporting Station
Clear Clear  
Wind Chill: 67°   Ceiling: Unl
Heat Index: 67°   Visibility: 10mi
Dew Point: 42°   Wind: 14mph
Humidity: 40%   Direction: 250°WSW
Pressure: 29.75"   Gusts: 20mph
Location:  40.41°N, 74.7°W
Report Text: KTTN 251753Z 25012G17KT 210V290 10SM CLR 19/06 A2975 RMK AO2 SLP069 T01940056 10194 20078 57042
Loading
Personal Weather Stations






























Interactive Weather Map
Tropical Storm Tracking
New forecast layout! Learn more

10-Day Weather Forecast

Advertisements
Track Severe Weather on mobile